Time;durP1;ratioP1;P1;durP2;ratioP2;P2;SDS_P1;SDS_P2;PMS_P1;PMS_P2;Temp;Humidity;BMP_temperature;BMP_pressure;BME280_temperature;BME280_humidity;BME280_pressure;Samples;Min_cycle;Max_cycle;Signal;HPM_P1;HPM_P2
2021/11/10 00:26:39;;;;;;;16.60;10.33;;;;;;;2.76;100.00;102065.34;5011128;28;20049;-80
2021/11/10 00:29:56;;;;;;;17.52;9.75;;;;;;;2.69;100.00;102058.16;4948033;29;20078;-82
2021/11/10 00:32:23;;;;;;;17.40;9.83;;;;;;;2.69;100.00;102068.59;4900025;29;20055;-82
2021/11/10 00:34:52;;;;;;;17.57;9.57;;;;;;;2.70;100.00;102052.09;4969759;28;20057;-82
2021/11/10 00:37:19;;;;;;;16.70;9.17;;;;;;;2.65;100.00;102052.78;4925502;28;20044;-82
2021/11/10 00:39:45;;;;;;;15.10;9.93;;;;;;;2.66;100.00;102054.53;4898299;28;20048;-82
2021/11/10 00:42:12;;;;;;;15.30;9.53;;;;;;;2.60;100.00;102054.31;4914986;28;20097;-82
2021/11/10 00:44:41;;;;;;;11.90;8.77;;;;;;;2.58;100.00;102050.78;4912349;28;20528;-82
2021/11/10 00:47:08;;;;;;;15.57;9.90;;;;;;;2.56;100.00;102048.13;4899563;28;20138;-82
2021/11/10 00:49:35;;;;;;;14.90;8.63;;;;;;;2.56;100.00;102044.63;4905931;28;20048;-82
2021/11/10 00:52:02;;;;;;;15.23;9.27;;;;;;;2.55;100.00;102043.75;4897932;29;20051;-81
2021/11/10 00:54:30;;;;;;;17.60;10.00;;;;;;;2.50;100.00;102045.31;4926078;28;20054;-81
2021/11/10 00:56:56;;;;;;;14.50;9.03;;;;;;;2.48;100.00;102042.66;5057126;23;20483;-83
2021/11/10 00:59:23;;;;;;;16.27;9.47;;;;;;;2.49;100.00;102038.31;4936795;28;20092;-83
2021/11/10 01:01:50;;;;;;;16.37;9.00;;;;;;;2.47;100.00;102037.38;4935102;29;20043;-82
2021/11/10 01:04:17;;;;;;;13.73;9.33;;;;;;;2.45;100.00;102033.84;4944428;28;20046;-81
2021/11/10 01:06:43;;;;;;;13.53;8.03;;;;;;;2.42;100.00;102033.72;4951498;28;20051;-83
2021/11/10 01:09:16;;;;;;;15.57;8.93;;;;;;;2.43;100.00;102027.66;4913533;28;20044;-84
2021/11/10 01:11:47;;;;;;;13.73;9.73;;;;;;;2.41;100.00;102030.22;5004430;28;20512;-82
2021/11/10 01:14:15;;;;;;;13.77;9.03;;;;;;;2.41;100.00;102022.41;4912333;28;20436;-83
2021/11/10 01:16:42;;;;;;;17.40;10.77;;;;;;;2.43;100.00;102027.66;4939928;28;20058;-85
2021/11/10 01:19:09;;;;;;;17.90;10.23;;;;;;;2.39;100.00;102033.63;4936013;28;20475;-84
2021/11/10 01:21:36;;;;;;;15.80;10.00;;;;;;;2.40;100.00;102030.19;4933688;29;20051;-82
2021/11/10 01:24:03;;;;;;;16.13;11.07;;;;;;;2.38;100.00;102037.94;4923661;28;20051;-83
2021/11/10 01:26:29;;;;;;;18.07;9.37;;;;;;;2.38;100.00;102032.75;4935090;29;20044;-81
2021/11/10 01:28:56;;;;;;;18.13;11.07;;;;;;;2.42;100.00;102036.31;4915127;28;20040;-82
2021/11/10 01:31:24;;;;;;;15.63;9.87;;;;;;;2.42;100.00;102031.09;4934641;28;20211;-82
2021/11/10 01:33:51;;;;;;;15.37;9.83;;;;;;;2.43;100.00;102019.84;4931356;28;20384;-81
2021/11/10 01:36:18;;;;;;;17.57;10.53;;;;;;;2.42;100.00;102023.28;4932470;29;20043;-80
2021/11/10 01:38:45;;;;;;;16.57;10.30;;;;;;;2.43;100.00;102023.34;4918278;28;20416;-82
2021/11/10 01:41:13;;;;;;;19.73;11.10;;;;;;;2.44;100.00;102011.22;4929363;28;20044;-80
2021/11/10 01:43:39;;;;;;;17.90;11.07;;;;;;;2.43;100.00;102007.69;4999540;28;20043;-83
2021/11/10 01:46:06;;;;;;;18.63;10.97;;;;;;;2.45;100.00;102010.38;4943593;28;20041;-82
2021/11/10 01:48:33;;;;;;;15.93;9.87;;;;;;;2.44;100.00;102004.25;4938911;28;20508;-85
2021/11/10 01:50:59;;;;;;;14.53;9.80;;;;;;;2.43;100.00;102004.19;4909633;28;20051;-83
2021/11/10 01:53:26;;;;;;;17.93;10.50;;;;;;;2.43;100.00;102004.19;4913290;28;20044;-82
2021/11/10 01:55:53;;;;;;;18.27;10.20;;;;;;;2.44;100.00;102006.00;4929393;28;20048;-82
2021/11/10 01:58:20;;;;;;;17.37;10.57;;;;;;;2.47;100.00;102006.09;4932541;28;20047;-82
2021/11/10 02:00:46;;;;;;;15.47;10.53;;;;;;;2.47;100.00;102012.19;4966436;28;20070;-82
2021/11/10 02:03:13;;;;;;;17.63;10.10;;;;;;;2.43;100.00;102001.56;4930163;29;20052;-83
2021/11/10 02:05:40;;;;;;;17.87;11.57;;;;;;;2.47;100.00;101995.66;5033266;28;20067;-83
2021/11/10 02:08:07;;;;;;;19.63;11.67;;;;;;;2.43;100.00;101993.75;4932460;28;20047;-80
2021/11/10 02:10:34;;;;;;;20.20;11.23;;;;;;;2.44;100.00;101993.84;4933127;28;20055;-81
2021/11/10 02:13:03;;;;;;;14.43;9.00;;;;;;;2.41;100.00;101987.59;4918197;29;20048;-83
2021/11/10 02:15:35;;;;;;;16.47;11.17;;;;;;;2.37;100.00;101973.59;4917418;28;20048;-80
2021/11/10 02:18:02;;;;;;;13.33;8.97;;;;;;;2.34;100.00;101973.47;4915527;29;20058;-81
2021/11/10 02:20:31;;;;;;;14.10;9.60;;;;;;;2.30;100.00;101970.72;4905781;28;20420;-80
2021/11/10 02:22:58;;;;;;;14.37;8.23;;;;;;;2.27;100.00;101971.50;4916908;29;20475;-81
2021/11/10 02:25:28;;;;;;;11.60;7.73;;;;;;;2.27;100.00;101968.91;4941487;28;20043;-80
2021/11/10 02:27:58;;;;;;;12.60;7.80;;;;;;;2.21;100.00;101966.97;4916017;29;20039;-81
2021/11/10 02:30:26;;;;;;;13.33;7.97;;;;;;;2.19;100.00;101958.22;4909978;28;20051;-80
2021/11/10 02:32:55;;;;;;;11.30;7.47;;;;;;;2.12;100.00;101960.53;4913330;28;20508;-84
2021/11/10 02:35:23;;;;;;;12.70;7.67;;;;;;;2.15;100.00;101964.13;4928756;28;20735;-80
2021/11/10 02:38:04;;;;;;;10.83;6.77;;;;;;;2.12;100.00;101958.81;4918715;28;20134;-80
2021/11/10 02:40:31;;;;;;;11.83;8.03;;;;;;;2.08;100.00;101954.31;4918306;28;20074;-80
2021/11/10 02:42:59;;;;;;;12.50;7.90;;;;;;;2.12;100.00;101951.00;4917644;28;20043;-79
2021/11/10 02:45:26;;;;;;;13.13;8.43;;;;;;;2.07;100.00;101946.44;4932729;28;20043;-80
2021/11/10 02:47:53;;;;;;;13.33;8.93;;;;;;;2.07;100.00;101939.53;4933120;29;20047;-81
2021/11/10 02:50:20;;;;;;;14.00;8.77;;;;;;;2.01;100.00;101946.22;4919855;28;20487;-80
2021/11/10 02:52:46;;;;;;;13.20;8.43;;;;;;;2.01;100.00;101930.59;4918238;28;20043;-79
2021/11/10 02:55:13;;;;;;;14.60;8.20;;;;;;;1.94;100.00;101932.13;4930051;28;20489;-82
2021/11/10 02:57:40;;;;;;;15.07;7.73;;;;;;;1.89;100.00;101928.47;4913455;28;20094;-79
2021/11/10 03:00:07;;;;;;;14.33;8.23;;;;;;;1.92;100.00;101931.16;4914841;28;20045;-80
2021/11/10 03:02:34;;;;;;;14.07;7.57;;;;;;;1.88;100.00;101924.97;4914668;28;20051;-79
2021/11/10 03:05:01;;;;;;;14.17;8.23;;;;;;;1.81;100.00;101935.13;4983551;28;20043;-81
2021/11/10 03:07:28;;;;;;;11.53;7.30;;;;;;;1.76;100.00;101928.84;4934164;28;20561;-80
2021/11/10 03:09:56;;;;;;;15.07;8.67;;;;;;;1.66;100.00;101932.84;4928497;29;20501;-79
2021/11/10 03:12:22;;;;;;;15.80;8.07;;;;;;;1.67;100.00;101929.41;4937872;28;20077;-79
2021/11/10 03:14:49;;;;;;;15.03;8.57;;;;;;;1.68;100.00;101920.75;4916486;28;20046;-79
2021/11/10 03:17:18;;;;;;;13.63;7.80;;;;;;;1.64;100.00;101917.16;4930321;28;20044;-80
2021/11/10 03:19:45;;;;;;;16.17;8.87;;;;;;;1.60;100.00;101923.13;4916456;28;20059;-79
2021/11/10 03:22:13;;;;;;;11.87;7.83;;;;;;;1.67;100.00;101917.25;4962166;28;20044;-79
2021/11/10 03:24:39;;;;;;;11.20;7.73;;;;;;;1.51;100.00;101925.34;4903814;28;20058;-79
2021/11/10 03:27:06;;;;;;;12.77;7.73;;;;;;;1.46;100.00;101921.72;4900988;28;20073;-79
2021/11/10 03:29:34;;;;;;;13.80;8.70;;;;;;;1.47;100.00;101923.50;4963617;28;20060;-79
2021/11/10 03:32:03;;;;;;;12.57;8.20;;;;;;;1.47;100.00;101918.28;4917904;29;20055;-79
2021/11/10 03:34:30;;;;;;;14.20;8.33;;;;;;;1.54;100.00;101903.78;4932044;28;20508;-79
2021/11/10 03:36:56;;;;;;;16.57;10.13;;;;;;;1.50;100.00;101920.97;4967173;28;20054;-79
2021/11/10 03:39:25;;;;;;;14.03;8.93;;;;;;;1.38;100.00;101916.22;4913072;28;20075;-79
2021/11/10 03:41:52;;;;;;;14.93;9.17;;;;;;;1.32;100.00;101920.31;4986746;28;20035;-81
2021/11/10 03:44:19;;;;;;;13.70;8.07;;;;;;;1.26;100.00;101915.78;4921845;28;20444;-79
2021/11/10 03:46:45;;;;;;;14.57;8.30;;;;;;;1.28;100.00;101918.44;4928297;28;20066;-80
2021/11/10 03:49:14;;;;;;;13.70;7.83;;;;;;;1.32;100.00;101916.00;4931508;29;20043;-79
2021/11/10 03:51:41;;;;;;;13.27;7.87;;;;;;;1.26;100.00;101914.88;4932982;29;20044;-79
2021/11/10 03:54:08;;;;;;;13.00;7.63;;;;;;;1.22;100.00;101913.00;4931705;28;20503;-79
2021/11/10 03:56:35;;;;;;;14.87;8.73;;;;;;;1.24;100.00;101911.31;4932352;28;20043;-81
2021/11/10 03:59:02;;;;;;;12.20;8.23;;;;;;;1.19;100.00;101918.09;4947606;28;20044;-80
2021/11/10 04:01:29;;;;;;;15.60;7.90;;;;;;;1.18;100.00;101905.88;4933733;29;20516;-80
2021/11/10 04:03:56;;;;;;;13.83;8.10;;;;;;;1.18;100.00;101905.88;4915987;28;20043;-79
2021/11/10 04:06:23;;;;;;;14.70;8.83;;;;;;;1.14;100.00;101902.28;4932944;28;20051;-79
2021/11/10 04:08:51;;;;;;;13.97;9.00;;;;;;;1.05;100.00;101894.13;4927747;28;20097;-79
2021/11/10 04:11:20;;;;;;;14.73;8.70;;;;;;;1.02;100.00;101900.13;4907048;28;20061;-79
2021/11/10 04:13:47;;;;;;;11.67;8.40;;;;;;;1.00;100.00;101901.75;4931764;28;20043;-79
2021/11/10 04:16:19;;;;;;;16.07;8.80;;;;;;;1.01;100.00;101900.97;4932627;29;20051;-79
2021/11/10 04:18:52;;;;;;;12.47;7.87;;;;;;;0.98;100.00;101900.81;4998006;28;20039;-80
2021/11/10 04:21:19;;;;;;;15.00;8.90;;;;;;;0.98;100.00;101897.34;4919204;28;20043;-78
2021/11/10 04:23:49;;;;;;;17.83;9.70;;;;;;;1.00;100.00;101896.56;4943473;28;20051;-79
2021/11/10 04:26:15;;;;;;;16.40;8.90;;;;;;;0.97;100.00;101908.56;4932027;29;20117;-78
2021/11/10 04:28:42;;;;;;;15.50;9.00;;;;;;;1.00;100.00;101906.97;4918050;28;21014;-79
2021/11/10 04:31:09;;;;;;;14.63;8.80;;;;;;;0.92;100.00;101905.78;4950132;28;20051;-81
2021/11/10 04:33:36;;;;;;;14.83;8.67;;;;;;;0.87;100.00;101906.44;4918220;28;20043;-80
2021/11/10 04:36:05;;;;;;;13.20;8.27;;;;;;;0.86;100.00;101905.56;4913553;28;20086;-81
2021/11/10 04:38:32;;;;;;;16.27;8.80;;;;;;;0.85;100.00;101914.19;4932045;28;20047;-82
2021/11/10 04:40:58;;;;;;;15.37;9.10;;;;;;;0.79;100.00;101912.22;4931083;28;20093;-81
2021/11/10 04:43:25;;;;;;;13.60;9.10;;;;;;;0.77;100.00;101892.19;4931249;29;20047;-81
2021/11/10 04:46:02;;;;;;;12.73;7.80;;;;;;;0.80;100.00;101894.91;4946715;28;20056;-82
2021/11/10 04:48:29;;;;;;;12.83;7.77;;;;;;;0.80;100.00;101910.53;4918777;28;20431;-81
2021/11/10 04:50:56;;;;;;;13.43;7.93;;;;;;;0.77;100.00;101892.19;4935177;28;20051;-81
2021/11/10 04:53:22;;;;;;;13.83;7.73;;;;;;;0.76;100.00;101893.03;4914981;28;20501;-82
2021/11/10 04:55:49;;;;;;;14.13;8.17;;;;;;;0.76;100.00;101891.31;4906459;28;20048;-81
2021/11/10 04:58:16;;;;;;;12.87;7.67;;;;;;;0.75;100.00;101897.31;4938713;28;20077;-81
2021/11/10 05:00:42;;;;;;;14.40;7.70;;;;;;;0.76;100.00;101893.03;4933784;29;20101;-84
2021/11/10 05:03:09;;;;;;;13.23;7.63;;;;;;;0.72;100.00;101885.91;4949895;28;20070;-82
2021/11/10 05:05:37;;;;;;;13.00;8.17;;;;;;;0.71;100.00;101892.84;4932707;29;20108;-81
2021/11/10 05:08:04;;;;;;;12.70;7.10;;;;;;;0.72;100.00;101888.53;4934104;29;20051;-81
2021/11/10 05:10:30;;;;;;;12.77;7.97;;;;;;;0.78;100.00;101889.66;4947164;28;20049;-83
2021/11/10 05:12:57;;;;;;;13.93;8.07;;;;;;;0.76;100.00;101885.22;4918648;29;20046;-82
2021/11/10 05:15:24;;;;;;;16.40;8.13;;;;;;;0.68;100.00;101891.84;4929169;28;20416;-81
2021/11/10 05:17:50;;;;;;;14.40;8.10;;;;;;;0.67;100.00;101885.72;4943998;28;20093;-81
2021/11/10 05:20:17;;;;;;;12.97;7.63;;;;;;;0.62;100.00;101878.59;4933905;28;20055;-83
2021/11/10 05:22:43;;;;;;;14.33;7.80;;;;;;;0.59;100.00;101881.97;4934697;28;20105;-81
2021/11/10 05:25:11;;;;;;;13.77;8.97;;;;;;;0.61;100.00;101884.63;4918088;28;20492;-81
2021/11/10 05:27:38;;;;;;;13.40;9.00;;;;;;;0.61;100.00;101890.72;4918625;29;20048;-81
2021/11/10 05:30:07;;;;;;;13.50;7.93;;;;;;;0.59;100.00;101899.25;4932204;28;20050;-82
2021/11/10 05:32:33;;;;;;;18.10;9.20;;;;;;;0.55;100.00;101893.06;4888459;29;20046;-81
2021/11/10 05:35:00;;;;;;;18.30;9.97;;;;;;;0.54;100.00;101891.28;4918083;29;20043;-81
2021/11/10 05:37:27;;;;;;;17.63;10.57;;;;;;;0.54;100.00;101892.19;4919365;28;20050;-81
2021/11/10 05:39:55;;;;;;;16.93;10.73;;;;;;;0.60;100.00;101888.06;4918648;28;20047;-81
2021/11/10 05:42:24;;;;;;;19.27;10.67;;;;;;;0.62;100.00;101886.41;4934604;28;20590;-82
2021/11/10 05:44:52;;;;;;;20.23;10.80;;;;;;;0.55;100.00;101893.06;4948825;28;20504;-81
2021/11/10 05:47:20;;;;;;;16.50;9.70;;;;;;;0.56;100.00;101877.50;4918019;28;20566;-82
2021/11/10 05:49:47;;;;;;;16.93;9.07;;;;;;;0.54;100.00;101881.78;4999558;28;20097;-81
2021/11/10 05:52:14;;;;;;;17.17;9.83;;;;;;;0.47;100.00;101884.06;4915431;29;20050;-83
2021/11/10 05:54:41;;;;;;;17.13;9.60;;;;;;;0.49;100.00;101891.09;5013792;28;20051;-81
2021/11/10 05:57:11;;;;;;;17.70;9.13;;;;;;;0.43;100.00;101892.59;4917774;28;20130;-81
2021/11/10 05:59:39;;;;;;;17.57;9.70;;;;;;;0.45;100.00;101896.13;4900926;28;20056;-81
2021/11/10 06:02:05;;;;;;;15.50;8.70;;;;;;;0.40;100.00;101895.94;4932452;29;20055;-82
2021/11/10 06:04:32;;;;;;;16.50;10.47;;;;;;;0.40;100.00;101893.31;4933033;28;20047;-82
2021/11/10 06:06:59;;;;;;;14.57;9.10;;;;;;;0.37;100.00;101890.63;4935762;28;20048;-81
2021/11/10 06:09:26;;;;;;;18.57;10.20;;;;;;;0.38;100.00;101881.09;4933071;29;20047;-81
2021/11/10 06:11:53;;;;;;;15.30;8.93;;;;;;;0.40;100.00;101887.25;4966614;28;20072;-81
2021/11/10 06:14:20;;;;;;;17.70;9.17;;;;;;;0.36;100.00;101887.97;4954229;28;20497;-81
2021/11/10 06:16:46;;;;;;;12.93;8.40;;;;;;;0.38;100.00;101883.69;4923518;29;20051;-81
2021/11/10 06:19:13;;;;;;;14.60;8.73;;;;;;;0.28;100.00;101885.94;4923450;28;20035;-81
2021/11/10 06:21:39;;;;;;;12.90;9.53;;;;;;;0.25;100.00;101880.63;4934618;28;20044;-82
2021/11/10 06:24:06;;;;;;;13.00;8.57;;;;;;;0.27;100.00;101886.75;4916071;29;20054;-83
2021/11/10 06:26:48;;;;;;;14.07;8.83;;;;;;;0.28;100.00;101891.13;4935783;28;20073;-84
2021/11/10 06:29:29;;;;;;;16.17;9.70;;;;;;;0.24;100.00;101885.72;4951653;28;20047;-81
2021/11/10 06:32:03;;;;;;;;;;;;;;;0.32;100.00;101892.13;4925404;28;20580;-82
2021/11/10 06:34:30;;;;;;;16.50;9.20;;;;;;;0.29;100.00;101879.00;4939654;28;19930;-81
2021/11/10 06:36:57;;;;;;;19.93;9.60;;;;;;;0.31;100.00;101869.56;4951284;28;20049;-81
2021/11/10 06:39:24;;;;;;;15.97;9.67;;;;;;;0.36;100.00;101880.16;4932502;29;20097;-81
2021/11/10 06:41:51;;;;;;;17.83;9.13;;;;;;;0.35;100.00;101875.78;4934180;28;20097;-81
2021/11/10 06:44:17;;;;;;;16.43;9.30;;;;;;;0.35;100.00;101881.88;4917588;28;20044;-81
2021/11/10 06:46:44;;;;;;;19.00;9.07;;;;;;;0.36;100.00;101882.75;4949931;29;20039;-81
2021/11/10 06:49:11;;;;;;;13.73;8.80;;;;;;;0.35;100.00;101876.66;4920866;28;20051;-81
2021/11/10 06:51:39;;;;;;;17.83;10.17;;;;;;;0.33;100.00;101885.22;4934169;28;20055;-81
2021/11/10 06:54:07;;;;;;;18.67;9.77;;;;;;;0.35;100.00;101888.78;4999760;28;20048;-81
2021/11/10 06:56:34;;;;;;;17.20;9.57;;;;;;;0.40;100.00;101885.53;4933256;28;20047;-81
2021/11/10 06:59:02;;;;;;;19.20;9.90;;;;;;;0.41;100.00;101889.00;4980287;28;20073;-81
2021/11/10 07:01:28;;;;;;;16.37;8.90;;;;;;;0.40;100.00;101895.03;4965332;28;20063;-81
2021/11/10 07:03:55;;;;;;;18.67;9.73;;;;;;;0.44;100.00;101882.25;4918905;28;20633;-81
2021/11/10 07:06:22;;;;;;;18.50;8.87;;;;;;;0.46;100.00;101883.19;4933659;28;20054;-82
2021/11/10 07:08:49;;;;;;;15.97;10.30;;;;;;;0.46;100.00;101872.78;4931667;28;20101;-81
2021/11/10 07:11:15;;;;;;;17.33;8.77;;;;;;;0.45;100.00;101868.41;4933125;28;20136;-81
2021/11/10 07:13:42;;;;;;;17.13;9.83;;;;;;;0.53;100.00;101867.00;4947991;28;20051;-82
2021/11/10 07:16:09;;;;;;;17.00;10.40;;;;;;;0.54;100.00;101868.78;4949465;28;20154;-80
2021/11/10 07:18:36;;;;;;;16.00;9.57;;;;;;;0.54;100.00;101871.38;4924929;28;20085;-81
2021/11/10 07:21:03;;;;;;;16.77;10.10;;;;;;;0.53;100.00;101871.31;4944537;29;20039;-82
2021/11/10 07:23:29;;;;;;;16.17;9.40;;;;;;;0.55;100.00;101874.84;4944269;28;20105;-81
2021/11/10 07:25:56;;;;;;;16.60;9.63;;;;;;;0.59;100.00;101857.66;4945300;29;20378;-81
2021/11/10 07:28:23;;;;;;;16.83;9.07;;;;;;;0.59;100.00;101868.06;4963341;28;20612;-81
2021/11/10 07:30:51;;;;;;;15.50;8.80;;;;;;;0.62;100.00;101870.78;4933273;29;20451;-81
2021/11/10 07:33:18;;;;;;;14.97;8.23;;;;;;;0.71;100.00;101877.22;4916405;29;20048;-81
2021/11/10 07:35:45;;;;;;;15.70;8.70;;;;;;;0.65;100.00;101879.59;4898650;29;20082;-81
2021/11/10 07:38:19;;;;;;;16.23;8.77;;;;;;;0.68;100.00;101878.84;4979898;28;20040;-81
2021/11/10 07:40:46;;;;;;;16.77;9.80;;;;;;;0.67;100.00;101870.13;5014134;28;20049;-81
2021/11/10 07:43:13;;;;;;;16.13;9.07;;;;;;;0.70;100.00;101871.97;4946957;28;20554;-82
2021/11/10 07:45:42;;;;;;;17.83;9.70;;;;;;;0.74;100.00;101877.34;4916916;29;20051;-81
2021/11/10 07:48:09;;;;;;;18.27;9.17;;;;;;;0.77;100.00;101881.81;4917037;29;20075;-81
2021/11/10 07:50:36;;;;;;;21.37;9.70;;;;;;;0.81;100.00;101873.28;4948088;29;20510;-81
2021/11/10 07:53:03;;;;;;;16.87;9.43;;;;;;;0.82;100.00;101864.63;4930625;28;20422;-80
2021/11/10 07:55:30;;;;;;;16.73;9.17;;;;;;;0.94;100.00;101848.63;4948251;28;20045;-81
2021/11/10 07:57:57;;;;;;;16.77;10.13;;;;;;;1.04;100.00;101861.13;5008084;23;20519;-84
2021/11/10 08:00:34;;;;;;;16.27;8.93;;;;;;;0.97;100.00;101880.84;5057987;28;20484;-84
2021/11/10 08:03:01;;;;;;;15.63;9.70;;;;;;;0.98;100.00;101879.13;5017230;28;20045;-83
2021/11/10 08:05:29;;;;;;;14.33;9.30;;;;;;;1.02;100.00;101886.22;4971421;28;20454;-83
2021/11/10 08:07:56;;;;;;;19.03;10.40;;;;;;;1.07;100.00;101890.75;5022368;28;20044;-81
2021/11/10 08:10:36;;;;;;;18.83;11.17;;;;;;;1.11;100.00;101890.06;5003595;28;20127;-82
2021/11/10 08:13:03;;;;;;;22.73;11.27;;;;;;;1.19;100.00;101889.47;5007355;28;20062;-84
2021/11/10 08:15:30;;;;;;;24.43;12.10;;;;;;;1.24;100.00;101891.38;4983638;28;20123;-79
2021/11/10 08:17:57;;;;;;;19.33;12.37;;;;;;;1.32;100.00;101889.06;4978775;28;20048;-83
2021/11/10 08:20:24;;;;;;;21.43;12.50;;;;;;;1.33;100.00;101886.50;4986893;28;20108;-83
2021/11/10 08:22:51;;;;;;;21.33;12.20;;;;;;;1.40;100.00;101891.13;4986329;28;20064;-84
2021/11/10 08:25:18;;;;;;;21.50;12.27;;;;;;;1.47;100.00;101888.75;4968549;28;20053;-84
2021/11/10 08:27:45;;;;;;;21.83;12.13;;;;;;;1.54;100.00;101894.22;4999159;28;20046;-83
2021/11/10 08:30:15;;;;;;;20.73;12.43;;;;;;;1.63;100.00;101893.69;5037919;28;20143;-82
2021/11/10 08:32:43;;;;;;;22.33;12.10;;;;;;;1.72;100.00;101886.19;5046141;28;20142;-83
2021/11/10 08:35:11;;;;;;;20.87;13.47;;;;;;;1.77;100.00;101884.63;5003552;28;20052;-84
2021/11/10 08:37:38;;;;;;;25.93;12.70;;;;;;;1.82;100.00;101890.00;4990360;28;20116;-83
2021/11/10 08:40:07;;;;;;;19.70;11.87;;;;;;;1.86;100.00;101890.16;5011732;28;20048;-81
2021/11/10 08:42:34;;;;;;;24.73;12.63;;;;;;;1.91;100.00;101888.59;5056422;28;20067;-84
2021/11/10 08:45:08;;;;;;;24.07;14.83;;;;;;;2.01;100.00;101889.78;5054507;28;20059;-81
2021/11/10 08:47:36;;;;;;;25.30;14.25;;;;;;;2.08;100.00;101883.94;5072803;28;20044;-83
2021/11/10 08:50:05;;;;;;;23.60;14.53;;;;;;;2.15;100.00;101879.81;5017646;28;20045;-83
2021/11/10 08:52:32;;;;;;;26.37;15.13;;;;;;;2.21;100.00;101880.91;4982381;28;20044;-83
2021/11/10 08:54:59;;;;;;;25.87;14.80;;;;;;;2.31;100.00;101879.50;5005541;28;20527;-82
2021/11/10 08:57:26;;;;;;;27.10;16.37;;;;;;;2.45;100.00;101874.75;5006843;28;20122;-81
2021/11/10 08:59:53;;;;;;;28.17;15.80;;;;;;;2.58;100.00;101883.81;5005235;28;20324;-83
2021/11/10 09:02:20;;;;;;;22.50;13.63;;;;;;;2.58;100.00;101882.09;5002986;28;20063;-81
2021/11/10 09:04:47;;;;;;;21.20;13.50;;;;;;;2.65;100.00;101886.66;5002449;28;20036;-82
2021/11/10 09:07:13;;;;;;;21.93;12.83;;;;;;;2.69;100.00;101885.03;4992101;28;20108;-81
2021/11/10 09:09:40;;;;;;;27.73;14.20;;;;;;;2.76;100.00;101880.06;5018943;28;20104;-82
2021/11/10 09:12:09;;;;;;;25.00;14.27;;;;;;;2.86;100.00;101881.25;4992304;28;20056;-81
2021/11/10 09:14:36;;;;;;;25.57;14.77;;;;;;;2.97;100.00;101878.94;5057812;28;20096;-81
2021/11/10 09:17:03;;;;;;;26.23;16.27;;;;;;;3.10;100.00;101879.34;5056205;28;20032;-81
2021/11/10 09:19:30;;;;;;;27.60;15.53;;;;;;;3.16;100.00;101875.16;4989832;28;20044;-81
2021/11/10 09:21:57;;;;;;;32.03;17.83;;;;;;;3.33;100.00;101869.56;5006241;28;20047;-80
2021/11/10 09:24:24;;;;;;;29.90;17.97;;;;;;;3.34;100.00;101875.66;4991611;28;20040;-80
2021/11/10 09:26:51;;;;;;;31.77;19.07;;;;;;;3.52;100.00;101872.69;4986890;28;20048;-81
2021/11/10 09:29:19;;;;;;;30.40;17.53;;;;;;;3.57;100.00;101871.09;5023244;28;20071;-83
2021/11/10 09:31:48;;;;;;;28.47;16.80;;;;;;;3.64;100.00;101873.94;5013018;28;20047;-82
2021/11/10 09:34:15;;;;;;;29.10;17.30;;;;;;;3.69;100.00;101866.19;5060980;28;20058;-83
2021/11/10 09:36:47;;;;;;;32.67;18.10;;;;;;;3.80;100.00;101864.78;4977922;28;20048;-83
2021/11/10 09:39:15;;;;;;;32.03;17.53;;;;;;;3.90;100.00;101868.50;4973886;28;20041;-82
2021/11/10 09:41:45;;;;;;;31.27;19.27;;;;;;;4.05;100.00;101870.63;4978127;28;20055;-83
2021/11/10 09:44:13;;;;;;;26.83;15.70;;;;;;;4.14;100.00;101873.47;4975092;28;20032;-82
2021/11/10 09:46:40;;;;;;;28.73;17.77;;;;;;;4.22;100.00;101877.16;5042533;28;20045;-83
2021/11/10 09:49:09;;;;;;;28.27;16.97;;;;;;;4.30;100.00;101865.16;4974753;28;20050;-84
2021/11/10 09:51:37;;;;;;;26.10;15.67;;;;;;;4.40;100.00;101847.94;4978931;28;20051;-83
2021/11/10 09:54:05;;;;;;;26.97;15.93;;;;;;;4.53;100.00;101852.59;4992184;28;20447;-84
2021/11/10 09:56:33;;;;;;;26.30;16.00;;;;;;;4.66;100.00;101848.56;4994076;28;20048;-83
2021/11/10 09:59:01;;;;;;;22.67;14.10;;;;;;;4.75;100.00;101848.75;4960798;28;20071;-83
2021/11/10 10:01:28;;;;;;;23.43;14.63;;;;;;;4.90;100.00;101849.09;5027616;28;20040;-83
2021/11/10 10:03:56;;;;;;;23.07;15.80;;;;;;;5.23;100.00;101848.03;4973785;28;20040;-83
2021/11/10 10:06:24;;;;;;;25.60;15.07;;;;;;;5.36;100.00;101852.66;4958473;28;20048;-85
2021/11/10 10:08:51;;;;;;;22.73;14.03;;;;;;;5.56;100.00;101847.81;4976816;28;20066;-84
2021/11/10 10:11:19;;;;;;;22.47;14.40;;;;;;;5.70;100.00;101842.81;4989657;28;20045;-83
2021/11/10 10:13:46;;;;;;;20.40;13.93;;;;;;;5.76;100.00;101835.06;4973741;28;20041;-83
2021/11/10 10:16:19;;;;;;;21.30;14.27;;;;;;;5.89;100.00;101837.06;4959923;28;20036;-83
2021/11/10 10:18:46;;;;;;;18.77;13.10;;;;;;;5.98;100.00;101842.50;5057357;28;20052;-83
2021/11/10 10:21:14;;;;;;;26.27;14.57;;;;;;;6.17;100.00;101844.56;4959337;28;20049;-83
2021/11/10 10:23:47;;;;;;;19.90;13.53;;;;;;;6.43;100.00;101844.09;5040934;28;20064;-82
2021/11/10 10:26:23;;;;;;;21.90;13.07;;;;;;;6.63;100.00;101818.13;4962076;28;20050;-84
2021/11/10 10:28:53;;;;;;;19.83;12.67;;;;;;;6.70;100.00;101815.63;5062014;28;20040;-83
2021/11/10 10:31:23;;;;;;;20.33;11.90;;;;;;;6.77;100.00;101816.59;5050850;28;20048;-83
2021/11/10 10:33:53;;;;;;;18.63;12.10;;;;;;;6.88;100.00;101812.34;4957740;28;20040;-83
2021/11/10 10:36:25;;;;;;;16.30;11.07;;;;;;;7.12;100.00;101809.16;4959582;28;20413;-83
2021/11/10 10:38:57;;;;;;;16.73;11.75;;;;;;;7.20;100.00;101812.75;5041591;28;20066;-84
2021/11/10 10:41:29;;;;;;;16.80;12.07;;;;;;;7.22;100.00;101800.50;4974300;28;20044;-83
2021/11/10 10:44:01;;;;;;;18.63;11.90;;;;;;;7.20;100.00;101796.09;4959512;28;20569;-83
2021/11/10 10:46:30;;;;;;;14.37;10.07;;;;;;;7.17;100.00;101796.06;4973641;28;20467;-84
2021/11/10 10:49:23;;;;;;;16.37;10.37;;;;;;;7.13;100.00;101789.88;5039899;28;20041;-84
2021/11/10 10:51:54;;;;;;;22.63;12.27;;;;;;;7.32;100.00;101794.50;4991054;28;20064;-85
2021/11/10 10:54:30;;;;;;;18.53;11.40;;;;;;;7.45;100.00;101798.13;4974549;28;20314;-83
2021/11/10 10:56:59;;;;;;;20.83;12.15;;;;;;;7.55;100.00;101800.00;4978094;28;20044;-83
2021/11/10 10:59:31;;;;;;;17.80;11.75;;;;;;;7.64;100.00;101796.56;5038446;28;20409;-82
2021/11/10 11:01:59;;;;;;;26.17;16.00;;;;;;;7.85;99.10;101794.16;4972027;28;20750;-84
2021/11/10 11:04:29;;;;;;;19.17;12.20;;;;;;;7.88;98.03;101788.91;4988961;28;20138;-83
2021/11/10 11:07:02;;;;;;;33.45;23.23;;;;;;;7.70;98.57;101794.00;4975273;28;20112;-83
2021/11/10 11:09:43;;;;;;;31.55;20.42;;;;;;;7.66;99.95;101776.44;4977588;28;20052;-81
2021/11/10 11:12:26;;;;;;;21.65;14.25;;;;;;;7.60;98.50;101772.00;5002232;28;20091;-83
2021/11/10 11:15:37;;;;;;;23.77;16.87;;;;;;;7.64;99.88;101772.91;4985275;28;20051;-81
2021/11/10 11:18:02;;;;;;;15.83;11.03;;;;;;;7.88;98.67;101770.47;4989793;28;20044;-82
2021/11/10 11:20:33;;;;;;;16.63;11.23;;;;;;;7.90;97.71;101771.41;4997323;28;20512;-84
2021/11/10 11:23:01;;;;;;;20.27;12.57;;;;;;;7.90;95.86;101760.88;4998574;28;20400;-83
2021/11/10 11:25:30;;;;;;;16.23;10.95;;;;;;;8.00;95.55;101755.69;5003919;28;20047;-84
2021/11/10 11:28:14;;;;;;;19.60;11.63;;;;;;;8.15;93.72;101761.91;4996107;28;20508;-83
2021/11/10 11:30:55;;;;;;;17.15;11.48;;;;;;;8.10;93.95;101762.78;5050053;28;20048;-83
2021/11/10 11:33:25;;;;;;;16.08;10.90;;;;;;;8.23;90.36;101763.72;5060766;28;20513;-83
2021/11/10 11:35:55;;;;;;;16.70;10.98;;;;;;;8.35;91.40;101763.84;4974726;28;20040;-83
2021/11/10 11:38:27;;;;;;;22.17;14.07;;;;;;;8.55;88.95;101777.13;5056298;28;20040;-84
2021/11/10 11:40:56;;;;;;;17.52;11.45;;;;;;;8.75;89.12;101767.59;5040771;28;20036;-84
2021/11/10 11:43:25;;;;;;;25.20;14.27;;;;;;;8.83;87.56;101771.16;4981415;28;20044;-82
2021/11/10 11:45:54;;;;;;;15.93;9.60;;;;;;;8.93;86.56;101777.34;5047831;28;20044;-83